createdAt,value
2023-05-16T00:00:40.746Z,98164.97
2023-05-16T00:03:24.506Z,98174.81
2023-05-16T00:05:51.260Z,98174.28
2023-05-16T00:08:18.446Z,98173.72
2023-05-16T00:10:45.280Z,98167.88
2023-05-16T00:13:12.396Z,98170.09
2023-05-16T00:15:39.821Z,98172.63
2023-05-16T00:18:07.269Z,98172.31
2023-05-16T00:20:34.790Z,98178.25
2023-05-16T00:23:02.097Z,98189.50
2023-05-16T00:25:29.065Z,98183.06
2023-05-16T00:27:56.252Z,98182.56
2023-05-16T00:30:22.981Z,98183.75
2023-05-16T00:32:50.083Z,98188.41
2023-05-16T00:35:17.125Z,98186.22
2023-05-16T00:37:44.171Z,98193.75
2023-05-16T00:40:11.467Z,98192.69
2023-05-16T00:42:39.010Z,98194.03
2023-05-16T00:45:06.487Z,98189.50
2023-05-16T00:47:33.833Z,98191.94
2023-05-16T00:50:01.929Z,98198.28
2023-05-16T00:52:29.085Z,98197.53
2023-05-16T00:54:55.936Z,98198.59
2023-05-16T00:57:23.683Z,98205.91
2023-05-16T00:59:51.133Z,98218.59
2023-05-16T01:02:18.316Z,98218.81
2023-05-16T01:04:46.132Z,98213.81
2023-05-16T01:07:13.163Z,98215.06
2023-05-16T01:09:40.405Z,98223.31
2023-05-16T01:12:26.052Z,98232.53
2023-05-16T01:14:55.983Z,98236.22
2023-05-16T01:17:28.931Z,98242.56
2023-05-16T01:20:22.285Z,98242.66
2023-05-16T01:23:08.381Z,98251.66
2023-05-16T01:25:35.148Z,98246.56
2023-05-16T01:28:03.305Z,98254.66
2023-05-16T01:30:33.789Z,98259.28
2023-05-16T01:33:01.268Z,98257.06
2023-05-16T01:35:28.680Z,98247.72
2023-05-16T01:37:55.961Z,98242.81
2023-05-16T01:41:01.393Z,98236.91
2023-05-16T01:43:35.660Z,98242.66
2023-05-16T01:46:10.712Z,98249.97
2023-05-16T01:48:58.044Z,98242.31
2023-05-16T01:51:28.110Z,98232.03
2023-05-16T01:53:58.627Z,98235.91
2023-05-16T01:56:26.842Z,98234.59
2023-05-16T01:58:55.014Z,98241.13
2023-05-16T02:01:21.824Z,98238.13
2023-05-16T02:03:48.998Z,98253.50
2023-05-16T02:06:15.912Z,98246.72
2023-05-16T02:08:43.053Z,98246.91
2023-05-16T02:11:09.758Z,98254.16
2023-05-16T02:13:37.303Z,98257.00
2023-05-16T02:16:04.419Z,98258.13
2023-05-16T02:18:32.062Z,98261.13
2023-05-16T02:20:58.982Z,98260.66
2023-05-16T02:23:25.965Z,98263.03
2023-05-16T02:25:52.622Z,98263.38
2023-05-16T02:28:19.785Z,98275.75
2023-05-16T02:30:46.740Z,98271.59
2023-05-16T02:33:13.802Z,98276.19
2023-05-16T02:35:40.874Z,98277.41
2023-05-16T02:38:07.985Z,98278.72
2023-05-16T02:43:25.087Z,98284.94
2023-05-16T02:45:53.162Z,98288.31
2023-05-16T02:48:20.081Z,98287.94
2023-05-16T02:50:47.126Z,98298.00
2023-05-16T02:53:13.905Z,98292.16
2023-05-16T02:55:41.073Z,98282.81
2023-05-16T02:58:08.336Z,98284.75
2023-05-16T03:00:35.383Z,98287.59
2023-05-16T03:03:02.373Z,98291.06
2023-05-16T03:05:29.820Z,98291.91
2023-05-16T03:07:56.773Z,98286.56
2023-05-16T03:10:23.864Z,98287.41
2023-05-16T03:12:51.103Z,98281.16
2023-05-16T03:15:18.184Z,98280.19
2023-05-16T03:17:45.011Z,98284.22
2023-05-16T03:20:12.377Z,98293.59
2023-05-16T03:22:40.510Z,98291.47
2023-05-16T03:25:08.021Z,98291.78
2023-05-16T03:27:34.851Z,98296.53
2023-05-16T03:30:02.560Z,98302.06
2023-05-16T03:32:29.443Z,98304.84
2023-05-16T03:34:56.607Z,98312.72
2023-05-16T03:37:23.405Z,98309.72
2023-05-16T03:39:51.087Z,98310.41
2023-05-16T03:42:18.579Z,98311.16
2023-05-16T03:44:45.837Z,98324.38
2023-05-16T03:47:12.711Z,98327.78
2023-05-16T03:49:40.062Z,98318.78
2023-05-16T03:52:07.249Z,98323.19
2023-05-16T03:54:34.363Z,98333.19
2023-05-16T03:57:01.627Z,98329.91
2023-05-16T03:59:28.675Z,98318.28
2023-05-16T04:01:55.718Z,98320.06
2023-05-16T04:04:22.813Z,98329.34
2023-05-16T04:06:49.534Z,98317.69
2023-05-16T04:09:16.669Z,98326.41
2023-05-16T04:11:43.469Z,98328.78
2023-05-16T04:14:10.582Z,98329.31
2023-05-16T04:16:37.461Z,98333.41
2023-05-16T04:19:04.664Z,98331.72
2023-05-16T04:21:31.947Z,98329.97
2023-05-16T04:23:59.170Z,98335.97
2023-05-16T04:26:27.678Z,98331.38
2023-05-16T04:28:54.713Z,98334.38
2023-05-16T04:31:23.171Z,98352.69
2023-05-16T04:33:50.447Z,98342.88
2023-05-16T04:36:17.144Z,98334.09
2023-05-16T04:38:44.419Z,98332.66
2023-05-16T04:41:11.281Z,98330.31
2023-05-16T04:43:38.366Z,98323.09
2023-05-16T04:46:05.484Z,98334.72
2023-05-16T04:48:32.772Z,98328.84
2023-05-16T04:50:59.592Z,98336.91
2023-05-16T04:53:26.656Z,98335.56
2023-05-16T04:55:53.474Z,98339.59
2023-05-16T04:58:20.671Z,98347.97
2023-05-16T05:00:47.658Z,98356.03
2023-05-16T05:03:14.740Z,98360.03
2023-05-16T05:05:41.552Z,98369.78
2023-05-16T05:08:08.602Z,98367.09
2023-05-16T05:10:35.612Z,98374.81
2023-05-16T05:13:02.710Z,98368.03
2023-05-16T05:15:29.811Z,98366.72
2023-05-16T05:17:57.111Z,98362.19
2023-05-16T05:20:24.015Z,98366.66
2023-05-16T05:22:51.058Z,98368.75
2023-05-16T05:25:17.909Z,98368.84
2023-05-16T05:27:44.957Z,98378.06
2023-05-16T05:30:12.006Z,98384.41
2023-05-16T05:32:39.205Z,98385.88
2023-05-16T05:35:06.331Z,98373.69
2023-05-16T05:37:33.861Z,98379.28
2023-05-16T05:40:00.758Z,98387.06
2023-05-16T05:42:27.795Z,98410.69
2023-05-16T05:44:55.069Z,98405.19
2023-05-16T05:47:22.310Z,98389.69
2023-05-16T05:49:49.103Z,98399.13
2023-05-16T05:52:16.145Z,98402.00
2023-05-16T05:54:42.957Z,98406.69
2023-05-16T05:57:09.961Z,98406.22
2023-05-16T05:59:36.829Z,98399.88
2023-05-16T06:02:04.080Z,98391.25
2023-05-16T06:04:31.304Z,98378.44
2023-05-16T06:06:58.400Z,98374.53
2023-05-16T06:09:25.194Z,98374.28
2023-05-16T06:11:52.285Z,98388.09
2023-05-16T06:14:20.089Z,98402.28
2023-05-16T06:16:47.192Z,98404.94
2023-05-16T06:19:16.353Z,98418.91
2023-05-16T06:21:43.922Z,98431.81
2023-05-16T06:24:11.322Z,98426.44
2023-05-16T06:26:38.408Z,98427.38
2023-05-16T06:29:05.171Z,98434.38
2023-05-16T06:31:32.399Z,98429.38
2023-05-16T06:33:59.311Z,98424.91
2023-05-16T06:36:26.456Z,98434.91
2023-05-16T06:38:53.320Z,98441.03
2023-05-16T06:41:21.577Z,98432.44
2023-05-16T06:43:48.410Z,98429.63
2023-05-16T06:46:16.132Z,98430.75
2023-05-16T06:48:42.933Z,98443.09
2023-05-16T06:51:10.424Z,98451.03
2023-05-16T06:53:37.298Z,98448.25
2023-05-16T06:56:04.496Z,98456.03
2023-05-16T06:58:31.643Z,98454.22
2023-05-16T07:00:58.771Z,98447.50
2023-05-16T07:03:26.087Z,98442.44
2023-05-16T07:05:53.236Z,98450.34
2023-05-16T07:08:20.064Z,98457.53
2023-05-16T07:10:47.224Z,98449.34
2023-05-16T07:13:14.086Z,98437.50
2023-05-16T07:15:41.269Z,98441.44
2023-05-16T07:18:08.364Z,98448.50
2023-05-16T07:20:35.516Z,98444.59
2023-05-16T07:23:02.365Z,98451.25
2023-05-16T07:25:30.219Z,98452.50
2023-05-16T07:27:57.200Z,98457.16
2023-05-16T07:30:24.746Z,98455.25
2023-05-16T07:32:51.770Z,98454.25
2023-05-16T07:35:19.065Z,98453.63
2023-05-16T07:37:46.066Z,98454.03
2023-05-16T07:40:13.750Z,98454.00
2023-05-16T07:42:40.579Z,98456.31
2023-05-16T07:45:08.416Z,98442.63
2023-05-16T07:47:35.650Z,98447.53
2023-05-16T07:50:02.910Z,98446.28
2023-05-16T07:52:29.759Z,98445.34
2023-05-16T07:54:56.994Z,98439.06
2023-05-16T07:57:25.078Z,98442.72
2023-05-16T07:59:52.834Z,98452.38
2023-05-16T08:02:19.979Z,98447.69
2023-05-16T08:04:47.220Z,98444.28
2023-05-16T08:07:14.087Z,98439.41
2023-05-16T08:09:41.196Z,98446.63
2023-05-16T08:12:08.531Z,98449.03
2023-05-16T08:14:37.167Z,98450.41
2023-05-16T08:17:04.223Z,98464.97
2023-05-16T08:19:33.078Z,98457.47
2023-05-16T08:21:59.949Z,98455.75
2023-05-16T08:24:27.305Z,98456.53
2023-05-16T08:26:54.322Z,98460.09
2023-05-16T08:29:22.082Z,98459.56
2023-05-16T08:31:48.972Z,98460.47
2023-05-16T08:34:16.286Z,98462.28
2023-05-16T08:36:43.123Z,98465.63
2023-05-16T08:39:13.105Z,98469.97
2023-05-16T08:41:40.031Z,98462.69
2023-05-16T08:44:07.306Z,98464.19
2023-05-16T08:46:37.529Z,98462.78
2023-05-16T08:49:08.019Z,98463.81
2023-05-16T08:51:35.746Z,98466.94
2023-05-16T08:54:13.524Z,98462.81
2023-05-16T08:56:44.422Z,98466.56
2023-05-16T08:59:15.192Z,98465.56
2023-05-16T09:01:42.277Z,98462.63
2023-05-16T09:04:10.434Z,98467.97
2023-05-16T09:06:37.699Z,98456.50
2023-05-16T09:09:08.022Z,98452.81
2023-05-16T09:11:37.108Z,98467.34
2023-05-16T09:14:05.719Z,98467.16
2023-05-16T09:16:32.802Z,98457.28
2023-05-16T09:19:01.696Z,98465.91
2023-05-16T09:21:29.762Z,98469.00
2023-05-16T09:23:56.875Z,98469.63
2023-05-16T09:26:23.750Z,98478.97
2023-05-16T09:28:53.811Z,98453.91
2023-05-16T09:31:26.864Z,98448.25
2023-05-16T09:33:56.663Z,98454.16
2023-05-16T09:36:23.531Z,98458.41
2023-05-16T09:38:51.776Z,98448.75
2023-05-16T09:41:18.632Z,98452.28
2023-05-16T09:43:45.920Z,98443.22
2023-05-16T09:46:16.094Z,98444.53
2023-05-16T09:48:46.848Z,98432.03
2023-05-16T09:51:14.264Z,98422.94
2023-05-16T09:53:44.295Z,98416.84
2023-05-16T09:56:11.628Z,98421.28
2023-05-16T09:58:39.822Z,98425.03
2023-05-16T10:01:07.381Z,98422.91
2023-05-16T10:03:35.584Z,98425.22
2023-05-16T10:06:03.302Z,98426.25
2023-05-16T10:08:31.919Z,98421.28
2023-05-16T10:10:58.864Z,98423.34
2023-05-16T10:13:29.572Z,98425.88
2023-05-16T10:15:57.395Z,98428.53
2023-05-16T10:18:31.309Z,98426.50
2023-05-16T10:21:01.608Z,98430.06
2023-05-16T10:23:28.774Z,98432.41
2023-05-16T10:25:57.855Z,98440.34
2023-05-16T10:28:25.120Z,98442.84
2023-05-16T10:30:52.035Z,98442.03
2023-05-16T10:33:19.924Z,98437.06
2023-05-16T10:35:46.895Z,98445.38
2023-05-16T10:38:17.342Z,98438.22
2023-05-16T10:40:45.204Z,98437.59
2023-05-16T10:43:22.799Z,98438.25
2023-05-16T10:45:54.697Z,98444.91
2023-05-16T10:48:29.164Z,98439.84
2023-05-16T10:50:56.116Z,98442.78
2023-05-16T10:53:23.148Z,98442.34
2023-05-16T10:55:51.725Z,98443.59
2023-05-16T10:58:23.045Z,98442.78
2023-05-16T11:00:50.134Z,98438.59
2023-05-16T11:03:25.548Z,98442.91
2023-05-16T11:05:54.137Z,98440.06
2023-05-16T11:08:21.290Z,98443.94
2023-05-16T11:10:48.521Z,98444.25
2023-05-16T11:13:19.724Z,98438.53
2023-05-16T11:15:46.677Z,98444.53
2023-05-16T11:18:17.455Z,98439.78
2023-05-16T11:20:44.598Z,98445.13
2023-05-16T11:23:18.670Z,98445.94
2023-05-16T11:25:46.225Z,98441.22
2023-05-16T11:28:14.435Z,98444.78
2023-05-16T11:30:45.931Z,98446.41
2023-05-16T11:33:13.598Z,98455.00
2023-05-16T11:35:40.479Z,98452.81
2023-05-16T11:38:12.076Z,98448.47
2023-05-16T11:40:42.326Z,98456.91
2023-05-16T11:43:09.490Z,98445.00
2023-05-16T11:45:36.265Z,98439.25
2023-05-16T11:48:08.128Z,98449.53
2023-05-16T11:50:35.428Z,98441.88
2023-05-16T11:53:02.778Z,98445.25
2023-05-16T11:55:41.385Z,98440.09
2023-05-16T11:58:10.352Z,98435.88
2023-05-16T12:03:05.933Z,98437.44
2023-05-16T12:05:34.977Z,98438.81
2023-05-16T12:08:05.732Z,98431.34
2023-05-16T12:10:35.819Z,98432.13
2023-05-16T12:13:03.653Z,98423.16
2023-05-16T12:15:31.132Z,98422.09
2023-05-16T12:17:58.867Z,98419.47
2023-05-16T12:20:26.467Z,98422.84
2023-05-16T12:22:53.917Z,98413.56
2023-05-16T12:25:21.792Z,98410.03
2023-05-16T12:27:48.906Z,98414.44
2023-05-16T12:30:19.051Z,98414.94
2023-05-16T12:32:46.465Z,98411.56
2023-05-16T12:35:13.454Z,98414.56
2023-05-16T12:37:43.564Z,98408.69
2023-05-16T12:40:12.691Z,98415.91
2023-05-16T12:42:39.744Z,98411.97
2023-05-16T12:45:15.109Z,98417.38
2023-05-16T12:47:42.260Z,98410.56
2023-05-16T12:50:10.192Z,98413.56
2023-05-16T12:52:37.760Z,98418.81
2023-05-16T12:55:05.005Z,98416.72
2023-05-16T12:57:33.803Z,98412.94
2023-05-16T13:00:01.575Z,98411.94
2023-05-16T13:02:29.250Z,98408.88
2023-05-16T13:04:56.371Z,98408.00
2023-05-16T13:07:23.480Z,98407.28
2023-05-16T13:09:50.227Z,98409.00
2023-05-16T13:12:17.439Z,98400.84
2023-05-16T13:14:45.277Z,98403.50
2023-05-16T13:17:12.559Z,98398.16
2023-05-16T13:19:39.342Z,98400.25
2023-05-16T13:22:06.489Z,98408.16
2023-05-16T13:24:33.671Z,98406.06
2023-05-16T13:27:00.976Z,98404.63
2023-05-16T13:29:27.939Z,98407.69
2023-05-16T13:31:55.237Z,98411.91
2023-05-16T13:34:22.254Z,98411.19
2023-05-16T13:36:54.472Z,98405.72
2023-05-16T13:39:22.459Z,98406.09
2023-05-16T13:41:49.781Z,98411.72
2023-05-16T13:44:16.816Z,98413.38
2023-05-16T13:46:44.450Z,98412.66
2023-05-16T13:49:11.401Z,98415.13
2023-05-16T13:51:38.608Z,98417.22
2023-05-16T13:54:05.618Z,98419.34
2023-05-16T13:56:32.744Z,98414.72
2023-05-16T13:59:05.924Z,98413.72
2023-05-16T14:01:34.535Z,98412.28
2023-05-16T14:04:01.554Z,98403.72
2023-05-16T14:06:28.798Z,98408.91
2023-05-16T14:08:55.700Z,98405.97
2023-05-16T14:11:28.748Z,98412.75
2023-05-16T14:13:56.693Z,98411.22
2023-05-16T14:16:23.865Z,98408.84
2023-05-16T14:18:50.955Z,98414.63
2023-05-16T14:21:18.127Z,98410.00
2023-05-16T14:23:45.337Z,98405.47
2023-05-16T14:26:12.452Z,98407.19
2023-05-16T14:28:39.457Z,98399.31
2023-05-16T14:31:07.137Z,98403.53
2023-05-16T14:33:33.931Z,98401.44
2023-05-16T14:36:01.186Z,98406.50
2023-05-16T14:38:28.246Z,98405.53
2023-05-16T14:40:55.561Z,98407.34
2023-05-16T14:43:22.422Z,98403.13
2023-05-16T14:45:49.728Z,98402.41
2023-05-16T14:48:17.301Z,98403.41
2023-05-16T14:50:44.513Z,98402.56
2023-05-16T14:53:11.429Z,98390.16
2023-05-16T14:55:38.704Z,98402.56
2023-05-16T14:58:05.904Z,98401.84
2023-05-16T15:00:33.099Z,98403.66
2023-05-16T15:03:00.008Z,98407.63
2023-05-16T15:05:29.424Z,98399.19
2023-05-16T15:07:56.378Z,98401.75
2023-05-16T15:10:24.008Z,98400.75
2023-05-16T15:12:50.836Z,98399.06
2023-05-16T15:15:17.992Z,98393.25
2023-05-16T15:17:44.867Z,98390.75
2023-05-16T15:20:12.194Z,98383.44
2023-05-16T15:22:40.522Z,98391.75
2023-05-16T15:25:08.387Z,98388.50
2023-05-16T15:27:35.262Z,98379.22
2023-05-16T15:30:02.509Z,98377.13
2023-05-16T15:32:29.539Z,98376.97
2023-05-16T15:34:57.371Z,98377.69
2023-05-16T15:37:24.202Z,98366.72
2023-05-16T15:39:51.269Z,98367.69
2023-05-16T15:42:20.016Z,98364.19
2023-05-16T15:44:47.278Z,98364.19
2023-05-16T15:47:14.199Z,98359.13
2023-05-16T15:49:41.728Z,98357.41
2023-05-16T15:52:08.963Z,98355.75
2023-05-16T15:54:36.437Z,98346.31
2023-05-16T15:57:03.335Z,98349.81
2023-05-16T15:59:30.477Z,98346.97
2023-05-16T16:01:57.377Z,98344.59
2023-05-16T16:04:24.526Z,98345.16
2023-05-16T16:06:51.366Z,98344.97
2023-05-16T16:09:18.506Z,98340.03
2023-05-16T16:11:45.457Z,98338.50
2023-05-16T16:14:12.638Z,98338.78
2023-05-16T16:16:40.735Z,98343.41
2023-05-16T16:19:08.596Z,98329.06
2023-05-16T16:21:36.061Z,98334.41
2023-05-16T16:24:03.323Z,98337.22
2023-05-16T16:26:31.891Z,98335.53
2023-05-16T16:28:59.706Z,98338.47
2023-05-16T16:31:26.650Z,98334.97
2023-05-16T16:33:54.930Z,98335.09
2023-05-16T16:36:21.754Z,98334.38
2023-05-16T16:38:49.211Z,98348.75
2023-05-16T16:41:16.688Z,98344.66
2023-05-16T16:43:43.843Z,98342.19
2023-05-16T16:46:10.740Z,98329.84
2023-05-16T16:48:38.000Z,98339.94
2023-05-16T16:51:05.178Z,98342.59
2023-05-16T16:53:32.497Z,98341.06
2023-05-16T16:55:59.385Z,98336.81
2023-05-16T16:58:26.623Z,98339.63
2023-05-16T17:00:53.469Z,98346.91
2023-05-16T17:03:21.593Z,98350.59
2023-05-16T17:05:48.596Z,98349.03
2023-05-16T17:08:15.754Z,98342.97
2023-05-16T17:10:42.557Z,98344.81
2023-05-16T17:13:12.292Z,98340.31
2023-05-16T17:15:39.166Z,98339.72
2023-05-16T17:18:09.059Z,98339.28
2023-05-16T17:20:36.404Z,98345.75
2023-05-16T17:23:03.861Z,98344.31
2023-05-16T17:25:30.823Z,98331.50
2023-05-16T17:27:58.124Z,98333.59
2023-05-16T17:30:25.107Z,98328.78
2023-05-16T17:32:56.620Z,98327.34
2023-05-16T17:35:23.515Z,98331.53
2023-05-16T17:37:51.215Z,98334.59
2023-05-16T17:40:18.270Z,98328.66
2023-05-16T17:42:45.533Z,98319.81
2023-05-16T17:45:16.318Z,98320.09
2023-05-16T17:47:43.601Z,98315.72
2023-05-16T17:50:10.975Z,98310.78
2023-05-16T17:52:39.862Z,98312.88
2023-05-16T17:55:07.383Z,98314.84
2023-05-16T17:57:34.883Z,98309.75
2023-05-16T18:00:01.881Z,98313.53
2023-05-16T18:02:29.027Z,98308.59
2023-05-16T18:04:55.942Z,98314.31
2023-05-16T18:07:23.701Z,98313.84
2023-05-16T18:09:50.644Z,98319.56
2023-05-16T18:12:17.780Z,98320.91
2023-05-16T18:14:45.602Z,98324.66
2023-05-16T18:17:13.553Z,98323.22
2023-05-16T18:19:40.448Z,98324.59
2023-05-16T18:22:08.961Z,98324.00
2023-05-16T18:24:35.894Z,98324.38
2023-05-16T18:27:03.398Z,98320.28
2023-05-16T18:29:30.374Z,98323.22
2023-05-16T18:31:57.868Z,98323.44
2023-05-16T18:34:24.695Z,98314.03
2023-05-16T18:36:51.797Z,98317.78
2023-05-16T18:39:20.402Z,98317.91
2023-05-16T18:41:48.446Z,98321.81
2023-05-16T18:44:18.155Z,98319.53
2023-05-16T18:46:46.527Z,98311.91
2023-05-16T18:49:14.264Z,98313.13
2023-05-16T18:51:41.471Z,98318.84
2023-05-16T18:54:08.336Z,98315.44
2023-05-16T18:56:35.512Z,98316.53
2023-05-16T18:59:02.355Z,98314.97
2023-05-16T19:01:29.551Z,98312.81
2023-05-16T19:03:56.797Z,98317.53
2023-05-16T19:06:24.212Z,98313.56
2023-05-16T19:08:51.216Z,98310.44
2023-05-16T19:11:18.418Z,98309.94
2023-05-16T19:13:45.906Z,98318.13
2023-05-16T19:16:13.840Z,98317.41
2023-05-16T19:18:40.858Z,98315.00
2023-05-16T19:21:08.137Z,98314.13
2023-05-16T19:23:35.142Z,98311.72
2023-05-16T19:26:02.278Z,98304.72
2023-05-16T19:28:29.088Z,98309.31
2023-05-16T19:30:56.412Z,98316.47
2023-05-16T19:33:23.247Z,98317.53
2023-05-16T19:35:52.928Z,98313.44
2023-05-16T19:38:24.632Z,98310.16
2023-05-16T19:40:51.991Z,98314.88
2023-05-16T19:43:19.035Z,98312.47
2023-05-16T19:45:46.187Z,98316.94
2023-05-16T19:48:13.693Z,98316.09
2023-05-16T19:50:41.178Z,98315.97
2023-05-16T19:53:08.162Z,98318.50
2023-05-16T19:55:37.776Z,98321.06
2023-05-16T19:58:05.016Z,98313.78
2023-05-16T20:00:32.183Z,98316.31
2023-05-16T20:02:59.166Z,98316.22
2023-05-16T20:05:27.124Z,98311.72
2023-05-16T20:07:55.392Z,98315.97
2023-05-16T20:10:22.502Z,98306.88
2023-05-16T20:12:49.701Z,98300.63
2023-05-16T20:15:17.178Z,98297.94
2023-05-16T20:17:44.091Z,98287.41
2023-05-16T20:20:11.324Z,98280.53
2023-05-16T20:22:41.954Z,98279.53
2023-05-16T20:25:10.063Z,98290.81
2023-05-16T20:27:36.894Z,98290.44
2023-05-16T20:30:04.898Z,98279.56
2023-05-16T20:32:31.820Z,98275.84
2023-05-16T20:34:59.130Z,98276.16
2023-05-16T20:37:26.912Z,98271.09
2023-05-16T20:39:54.591Z,98282.72
2023-05-16T20:42:21.809Z,98273.03
2023-05-16T20:44:49.012Z,98272.19
2023-05-16T20:47:18.048Z,98265.06
2023-05-16T20:49:45.138Z,98264.22
2023-05-16T20:52:11.933Z,98264.94
2023-05-16T20:54:38.994Z,98257.91
2023-05-16T20:57:06.086Z,98245.84
2023-05-16T20:59:34.002Z,98253.31
2023-05-16T21:02:01.594Z,98254.41
2023-05-16T21:04:28.899Z,98258.91
2023-05-16T21:06:55.689Z,98251.88
2023-05-16T21:09:22.757Z,98247.53
2023-05-16T21:11:50.001Z,98243.88
2023-05-16T21:14:17.175Z,98251.03
2023-05-16T21:16:44.011Z,98239.56
2023-05-16T21:19:11.172Z,98245.72
2023-05-16T21:21:38.224Z,98248.25
2023-05-16T21:24:05.754Z,98241.22
2023-05-16T21:26:32.655Z,98238.72
2023-05-16T21:28:59.833Z,98247.66
2023-05-16T21:31:26.730Z,98236.28
2023-05-16T21:33:53.880Z,98241.75
2023-05-16T21:36:21.168Z,98242.69
2023-05-16T21:38:48.466Z,98236.53
2023-05-16T21:41:15.382Z,98233.03
2023-05-16T21:43:42.588Z,98239.19
2023-05-16T21:46:09.500Z,98234.84
2023-05-16T21:48:36.692Z,98243.78
2023-05-16T21:51:03.773Z,98244.75
2023-05-16T21:53:30.902Z,98232.56
2023-05-16T21:55:57.794Z,98226.38
2023-05-16T21:58:25.491Z,98226.63
2023-05-16T22:00:52.478Z,98231.09
2023-05-16T22:03:21.273Z,98224.22
2023-05-16T22:05:48.486Z,98222.50
2023-05-16T22:08:15.865Z,98223.47
2023-05-16T22:10:42.929Z,98212.34
2023-05-16T22:13:10.172Z,98221.28
2023-05-16T22:15:37.004Z,98209.94
2023-05-16T22:18:04.333Z,98215.50
2023-05-16T22:20:31.338Z,98208.59
2023-05-16T22:22:58.504Z,98201.84
2023-05-16T22:25:25.398Z,98200.13
2023-05-16T22:27:52.680Z,98195.91
2023-05-16T22:30:19.546Z,98189.88
2023-05-16T22:32:47.133Z,98191.78
2023-05-16T22:35:14.493Z,98187.06
2023-05-16T22:37:42.212Z,98183.66
2023-05-16T22:40:09.280Z,98186.44
2023-05-16T22:42:36.474Z,98180.38
2023-05-16T22:45:03.956Z,98189.22
2023-05-16T22:47:33.076Z,98190.19
2023-05-16T22:49:59.992Z,98177.88
2023-05-16T22:52:27.101Z,98178.94
2023-05-16T22:54:54.091Z,98172.03
2023-05-16T22:57:21.442Z,98171.31
2023-05-16T22:59:48.178Z,98170.72
2023-05-16T23:02:15.405Z,98166.59
2023-05-16T23:04:42.382Z,98176.38
2023-05-16T23:07:09.700Z,98172.50
2023-05-16T23:09:36.849Z,98171.16
2023-05-16T23:12:04.147Z,98173.81
2023-05-16T23:14:30.941Z,98176.56
2023-05-16T23:16:58.009Z,98178.63
2023-05-16T23:19:25.108Z,98177.78
2023-05-16T23:21:52.343Z,98176.81
2023-05-16T23:24:19.172Z,98167.88
2023-05-16T23:26:46.438Z,98163.28
2023-05-16T23:29:13.182Z,98152.81
2023-05-16T23:31:40.320Z,98143.88
2023-05-16T23:34:07.367Z,98136.53
2023-05-16T23:36:34.487Z,98132.78
2023-05-16T23:39:01.288Z,98134.72
2023-05-16T23:41:28.352Z,98130.34
2023-05-16T23:43:55.394Z,98124.94
2023-05-16T23:46:22.408Z,98126.63
2023-05-16T23:48:49.292Z,98124.09
2023-05-16T23:51:16.407Z,98125.03
2023-05-16T23:53:43.325Z,98121.53
2023-05-16T23:56:10.606Z,98127.59
2023-05-16T23:58:37.577Z,98127.59
